Terminal Aerodrome Forecast
Issued by NWS Buffalo, NY

Home | Current Version | Previous Version | Text Only | Print | Product List | Glossary On
Versions: 1 2 3 4 5 6 7 8 9 10 11 12 13 14 15 16 17 18 19 20 21 22 23 24 25 26 27 28 29 30 31 32 33 34
000
FTUS41 KBUF 030902 AAC
TAFART
TAF AMD
KART 030902Z 0309/0406 00000KT 1SM BR SCT060
      TEMPO 0309/0312 1/2SM FG
     FM031300 VRB03KT 4SM BR SCT003 SCT250
     FM031500 34006KT P6SM SCT040
     FM031800 01006KT P6SM SCT040
     FM040200 05004KT P6SM FEW250=

USA.gov is the U.S. government's official web portal to all federal, state and local government web resources and services.